Time;durP1;ratioP1;P1;durP2;ratioP2;P2;SDS_P1;SDS_P2;PMS_P1;PMS_P2;Temp;Humidity;BMP_temperature;BMP_pressure;BME280_temperature;BME280_humidity;BME280_pressure;Samples;Min_cycle;Max_cycle;Signal;HPM_P1;HPM_P2
2021/04/28 00:00:01;;;;;;;;;;;20.20;36.90;;;;;;487368;244;1052;-45
2021/04/28 00:02:02;;;;;;;;;;;20.20;36.90;;;;;;487232;244;1195;-45
2021/04/28 00:04:03;;;;;;;;;;;20.20;36.90;;;;;;487406;244;1018;-45
2021/04/28 00:06:05;;;;;;;;;;;20.20;36.80;;;;;;487396;243;1069;-44
2021/04/28 00:08:06;;;;;;;;;;;20.30;36.80;;;;;;487461;243;1189;-44
2021/04/28 00:10:07;;;;;;;;;;;20.30;36.80;;;;;;487466;244;1139;-45
2021/04/28 00:12:08;;;;;;;;;;;20.30;36.80;;;;;;487241;243;2202;-44
2021/04/28 00:14:10;;;;;;;;;;;20.30;36.70;;;;;;487554;244;1123;-45
2021/04/28 00:16:11;;;;;;;;;;;20.30;36.80;;;;;;487595;244;1047;-45
2021/04/28 00:18:12;;;;;;;;;;;20.40;36.80;;;;;;487759;243;1050;-45
2021/04/28 00:20:14;;;;;;;;;;;20.30;36.70;;;;;;487325;244;1052;-44
2021/04/28 00:22:15;;;;;;;;;;;20.40;36.70;;;;;;487184;244;1348;-44
2021/04/28 00:24:16;;;;;;;;;;;20.40;36.60;;;;;;487512;243;1233;-45
2021/04/28 00:26:17;;;;;;;;;;;20.40;36.60;;;;;;487408;244;1223;-44
2021/04/28 00:28:19;;;;;;;;;;;20.50;36.60;;;;;;487360;244;1063;-45
2021/04/28 00:30:20;;;;;;;;;;;20.50;36.50;;;;;;487321;244;1035;-44
2021/04/28 00:32:21;;;;;;;;;;;20.50;36.50;;;;;;487742;243;2186;-44
2021/04/28 00:34:22;;;;;;;;;;;20.50;36.50;;;;;;487771;244;1120;-44
2021/04/28 00:36:24;;;;;;;;;;;20.50;36.50;;;;;;487311;244;1069;-45
2021/04/28 00:38:25;;;;;;;;;;;20.60;36.50;;;;;;487570;244;1044;-44
2021/04/28 00:40:26;;;;;;;;;;;20.60;36.50;;;;;;487489;244;1195;-45
2021/04/28 00:42:28;;;;;;;;;;;20.60;36.40;;;;;;487340;244;1083;-44
2021/04/28 00:44:29;;;;;;;;;;;20.60;36.40;;;;;;487313;244;1094;-44
2021/04/28 00:46:30;;;;;;;;;;;20.60;36.40;;;;;;487421;244;1057;-44
2021/04/28 00:48:31;;;;;;;;;;;20.60;36.30;;;;;;487662;244;1094;-44
2021/04/28 00:50:33;;;;;;;;;;;20.70;36.40;;;;;;487392;243;1069;-44
2021/04/28 00:52:34;;;;;;;;;;;20.70;36.40;;;;;;487473;243;2198;-45
2021/04/28 00:54:35;;;;;;;;;;;20.70;36.40;;;;;;487371;244;1291;-44
2021/04/28 00:56:37;;;;;;;;;;;20.70;36.30;;;;;;487461;243;1097;-44
2021/04/28 00:58:38;;;;;;;;;;;20.70;36.30;;;;;;487801;243;1050;-45
2021/04/28 01:00:39;;;;;;;;;;;20.70;36.20;;;;;;487346;244;1067;-45
2021/04/28 01:02:40;;;;;;;;;;;20.70;36.30;;;;;;487410;244;1149;-45
2021/04/28 01:04:42;;;;;;;;;;;20.70;36.20;;;;;;487368;244;1186;-45
2021/04/28 01:06:44;;;;;;;;;;;20.70;36.20;;;;;;487496;243;1158;-45
2021/04/28 01:08:45;;;;;;;;;;;20.80;36.30;;;;;;487435;244;1051;-44
2021/04/28 01:10:46;;;;;;;;;;;20.80;36.20;;;;;;487368;243;1184;-44
2021/04/28 01:12:47;;;;;;;;;;;20.80;36.20;;;;;;487324;243;2189;-45
2021/04/28 01:14:49;;;;;;;;;;;20.80;36.20;;;;;;487407;243;1075;-44
2021/04/28 01:16:50;;;;;;;;;;;20.80;36.20;;;;;;487728;244;1114;-44
2021/04/28 01:18:54;;;;;;;;;;;20.80;36.20;;;;;;487319;244;1181;-45
2021/04/28 01:20:52;;;;;;;;;;;20.80;36.20;;;;;;487123;244;2959;-45
2021/04/28 01:22:54;;;;;;;;;;;20.90;36.20;;;;;;487347;244;1364;-45
2021/04/28 01:24:55;;;;;;;;;;;20.90;36.20;;;;;;487339;244;1240;-44
2021/04/28 01:26:56;;;;;;;;;;;20.90;36.20;;;;;;487785;243;1081;-45
2021/04/28 01:28:58;;;;;;;;;;;20.90;36.20;;;;;;487450;244;1116;-45
2021/04/28 01:30:59;;;;;;;;;;;20.90;36.20;;;;;;487591;244;1256;-45
2021/04/28 01:33:00;;;;;;;;;;;20.90;36.20;;;;;;487375;244;2134;-44
2021/04/28 01:35:01;;;;;;;;;;;20.90;36.20;;;;;;487527;244;1053;-45
2021/04/28 01:37:03;;;;;;;;;;;20.90;36.20;;;;;;487393;244;1105;-44
2021/04/28 01:39:04;;;;;;;;;;;20.90;36.10;;;;;;487586;244;1076;-45
2021/04/28 01:41:05;;;;;;;;;;;20.90;36.10;;;;;;487293;243;1332;-44
2021/04/28 01:43:06;;;;;;;;;;;20.90;36.10;;;;;;487525;244;1018;-44
2021/04/28 01:45:08;;;;;;;;;;;20.90;36.10;;;;;;487219;244;1100;-44
2021/04/28 01:47:09;;;;;;;;;;;21.00;36.10;;;;;;487197;244;1122;-44
2021/04/28 01:49:10;;;;;;;;;;;21.00;36.10;;;;;;487503;244;1065;-44
2021/04/28 01:51:12;;;;;;;;;;;21.00;36.10;;;;;;487787;243;1084;-44
2021/04/28 01:53:13;;;;;;;;;;;21.00;36.10;;;;;;487283;244;2112;-45
2021/04/28 01:55:14;;;;;;;;;;;21.00;36.10;;;;;;487314;244;1155;-45
2021/04/28 01:57:15;;;;;;;;;;;21.00;36.10;;;;;;487601;244;1178;-45
2021/04/28 01:59:17;;;;;;;;;;;21.00;36.10;;;;;;487508;243;1103;-44
2021/04/28 02:01:18;;;;;;;;;;;21.00;36.10;;;;;;487278;244;1238;-45
2021/04/28 02:03:20;;;;;;;;;;;21.00;36.10;;;;;;487439;241;1351;-44
2021/04/28 02:05:21;;;;;;;;;;;21.00;36.10;;;;;;487582;244;1054;-45
2021/04/28 02:07:22;;;;;;;;;;;21.00;36.10;;;;;;487283;244;1064;-44
2021/04/28 02:09:23;;;;;;;;;;;21.00;36.10;;;;;;487684;243;1163;-44
2021/04/28 02:11:25;;;;;;;;;;;21.00;36.10;;;;;;487198;244;1178;-45
2021/04/28 02:13:26;;;;;;;;;;;21.00;36.10;;;;;;487269;244;2167;-45
2021/04/28 02:15:27;;;;;;;;;;;21.00;36.10;;;;;;487413;244;1096;-45
2021/04/28 02:17:28;;;;;;;;;;;21.10;36.10;;;;;;487280;243;1084;-45
2021/04/28 02:19:30;;;;;;;;;;;21.10;36.00;;;;;;487567;244;1253;-45
2021/04/28 02:21:31;;;;;;;;;;;21.10;36.10;;;;;;487426;244;1028;-44
2021/04/28 02:23:32;;;;;;;;;;;21.10;36.00;;;;;;487225;244;1106;-45
2021/04/28 02:25:34;;;;;;;;;;;21.10;36.10;;;;;;487315;243;1275;-45
2021/04/28 02:27:35;;;;;;;;;;;21.10;36.00;;;;;;487272;243;1173;-45
2021/04/28 02:29:36;;;;;;;;;;;21.10;36.10;;;;;;487216;244;1059;-44
2021/04/28 02:31:37;;;;;;;;;;;21.20;35.90;;;;;;487139;244;2154;-45
2021/04/28 02:33:39;;;;;;;;;;;21.00;36.20;;;;;;487301;243;1122;-44
2021/04/28 02:35:41;;;;;;;;;;;20.60;36.90;;;;;;487518;244;1075;-44
2021/04/28 02:37:42;;;;;;;;;;;20.10;37.80;;;;;;487305;244;1201;-44
2021/04/28 02:39:43;;;;;;;;;;;19.80;38.40;;;;;;487307;244;1116;-44
2021/04/28 02:41:44;;;;;;;;;;;19.60;38.90;;;;;;487374;244;1167;-44
2021/04/28 02:43:46;;;;;;;;;;;19.40;39.20;;;;;;487420;244;1078;-44
2021/04/28 02:45:47;;;;;;;;;;;19.40;39.40;;;;;;487782;243;1090;-44
2021/04/28 02:47:48;;;;;;;;;;;19.30;39.70;;;;;;487266;243;1064;-44
2021/04/28 02:49:49;;;;;;;;;;;19.10;39.90;;;;;;487312;243;1038;-44
2021/04/28 02:51:51;;;;;;;;;;;19.10;40.10;;;;;;487178;244;2194;-44
2021/04/28 02:53:52;;;;;;;;;;;19.00;40.10;;;;;;487283;244;1135;-44
2021/04/28 02:55:53;;;;;;;;;;;19.00;40.30;;;;;;487510;243;1144;-44
2021/04/28 02:57:55;;;;;;;;;;;19.00;40.30;;;;;;487253;244;1187;-44
2021/04/28 02:59:56;;;;;;;;;;;18.90;40.50;;;;;;487461;244;1089;-44
2021/04/28 03:01:57;;;;;;;;;;;18.80;40.50;;;;;;487289;243;1298;-44
2021/04/28 03:03:58;;;;;;;;;;;18.80;40.60;;;;;;487276;244;1076;-44
2021/04/28 03:06:00;;;;;;;;;;;18.80;40.60;;;;;;487442;243;1445;-44
2021/04/28 03:08:01;;;;;;;;;;;18.80;40.60;;;;;;487306;244;1518;-44
2021/04/28 03:10:02;;;;;;;;;;;18.70;40.60;;;;;;487284;244;1279;-44
2021/04/28 03:12:04;;;;;;;;;;;18.70;40.80;;;;;;487302;237;2202;-44
2021/04/28 03:14:05;;;;;;;;;;;18.70;40.90;;;;;;487383;244;1035;-44
2021/04/28 03:16:06;;;;;;;;;;;18.70;40.80;;;;;;487352;244;1082;-44
2021/04/28 03:18:07;;;;;;;;;;;18.60;40.80;;;;;;487435;243;1129;-44
2021/04/28 03:20:09;;;;;;;;;;;18.60;40.80;;;;;;487263;244;1052;-44
2021/04/28 03:22:10;;;;;;;;;;;18.60;40.90;;;;;;487362;243;1097;-44
2021/04/28 03:24:11;;;;;;;;;;;18.50;41.00;;;;;;487672;244;1045;-44
2021/04/28 03:26:12;;;;;;;;;;;18.60;41.10;;;;;;487415;243;1160;-44
2021/04/28 03:28:14;;;;;;;;;;;18.60;41.00;;;;;;487239;244;1141;-44
2021/04/28 03:30:15;;;;;;;;;;;18.50;41.00;;;;;;487295;244;1015;-44
2021/04/28 03:32:16;;;;;;;;;;;18.50;41.10;;;;;;487378;244;2139;-44
2021/04/28 03:34:18;;;;;;;;;;;18.50;41.00;;;;;;487253;244;1067;-44
2021/04/28 03:36:19;;;;;;;;;;;18.50;41.10;;;;;;487667;244;1105;-44
2021/04/28 03:38:20;;;;;;;;;;;18.50;41.10;;;;;;487348;244;1061;-44
2021/04/28 03:40:21;;;;;;;;;;;18.40;41.20;;;;;;487798;243;1014;-44
2021/04/28 03:42:23;;;;;;;;;;;18.40;41.20;;;;;;487602;244;1186;-44
2021/04/28 03:44:24;;;;;;;;;;;18.40;41.20;;;;;;487786;244;1009;-44
2021/04/28 03:46:25;;;;;;;;;;;18.40;41.20;;;;;;487461;244;1055;-44
2021/04/28 03:48:27;;;;;;;;;;;18.40;41.20;;;;;;487836;244;1054;-44
2021/04/28 03:50:28;;;;;;;;;;;18.30;41.30;;;;;;487385;244;1016;-44
2021/04/28 03:52:29;;;;;;;;;;;18.40;41.30;;;;;;487237;244;2168;-44
2021/04/28 03:54:30;;;;;;;;;;;18.40;41.30;;;;;;487314;244;1062;-44
2021/04/28 03:56:32;;;;;;;;;;;18.30;41.40;;;;;;487517;243;1201;-44
2021/04/28 03:58:33;;;;;;;;;;;18.30;41.40;;;;;;487245;244;1150;-44
2021/04/28 04:00:34;;;;;;;;;;;18.30;41.40;;;;;;487225;244;1377;-44
2021/04/28 04:02:35;;;;;;;;;;;18.30;41.40;;;;;;487305;244;1290;-44
2021/04/28 04:04:37;;;;;;;;;;;18.30;41.50;;;;;;487380;243;1148;-44
2021/04/28 04:06:38;;;;;;;;;;;18.20;41.40;;;;;;487260;244;1196;-44
2021/04/28 04:08:39;;;;;;;;;;;18.30;41.40;;;;;;487319;244;1072;-44
2021/04/28 04:10:41;;;;;;;;;;;18.20;41.40;;;;;;487280;244;1078;-44
2021/04/28 04:12:42;;;;;;;;;;;18.20;41.40;;;;;;487362;243;2210;-44
2021/04/28 04:14:43;;;;;;;;;;;18.20;41.50;;;;;;487495;244;1059;-44
2021/04/28 04:16:44;;;;;;;;;;;18.20;41.50;;;;;;487297;243;1139;-44
2021/04/28 04:18:46;;;;;;;;;;;18.20;41.50;;;;;;487320;244;1220;-44
2021/04/28 04:20:47;;;;;;;;;;;18.20;41.60;;;;;;487407;243;1152;-44
2021/04/28 04:22:48;;;;;;;;;;;18.10;41.60;;;;;;487234;244;1107;-44
2021/04/28 04:24:50;;;;;;;;;;;18.20;41.60;;;;;;487363;244;1139;-44
2021/04/28 04:26:51;;;;;;;;;;;18.10;41.50;;;;;;487277;244;1232;-44
2021/04/28 04:28:52;;;;;;;;;;;18.10;41.60;;;;;;487271;243;1149;-44
2021/04/28 04:30:53;;;;;;;;;;;18.10;41.60;;;;;;487310;243;1075;-44
2021/04/28 04:32:55;;;;;;;;;;;18.10;41.60;;;;;;487195;243;2194;-44
2021/04/28 04:34:56;;;;;;;;;;;18.10;41.70;;;;;;487230;243;1100;-44
2021/04/28 04:36:57;;;;;;;;;;;18.10;41.70;;;;;;487674;243;1198;-44
2021/04/28 04:38:58;;;;;;;;;;;18.10;41.60;;;;;;487404;244;1058;-44
2021/04/28 04:41:00;;;;;;;;;;;18.10;41.70;;;;;;487305;243;1071;-44
2021/04/28 04:43:01;;;;;;;;;;;18.10;41.70;;;;;;487244;244;1155;-44
2021/04/28 04:45:02;;;;;;;;;;;18.00;41.70;;;;;;487216;243;1075;-44
2021/04/28 04:47:04;;;;;;;;;;;18.00;41.70;;;;;;487085;244;1121;-44
2021/04/28 04:49:05;;;;;;;;;;;18.10;41.70;;;;;;487028;244;1068;-44
2021/04/28 04:51:06;;;;;;;;;;;18.00;41.50;;;;;;486991;243;1099;-44
2021/04/28 04:53:08;;;;;;;;;;;18.10;41.70;;;;;;486979;244;2166;-44
2021/04/28 04:55:09;;;;;;;;;;;18.00;41.60;;;;;;487092;243;2257;-44
2021/04/28 04:57:10;;;;;;;;;;;18.00;41.70;;;;;;487083;244;1064;-44
2021/04/28 04:59:11;;;;;;;;;;;18.00;41.70;;;;;;487151;242;1183;-44
2021/04/28 05:01:13;;;;;;;;;;;18.00;41.80;;;;;;487194;243;1343;-44
2021/04/28 05:03:14;;;;;;;;;;;18.00;41.80;;;;;;487108;244;1064;-44
2021/04/28 05:05:15;;;;;;;;;;;18.00;41.70;;;;;;486990;244;1046;-44
2021/04/28 05:07:16;;;;;;;;;;;18.00;41.70;;;;;;487139;244;1106;-44
2021/04/28 05:09:18;;;;;;;;;;;18.00;41.80;;;;;;487111;243;1197;-44
2021/04/28 05:11:19;;;;;;;;;;;17.90;41.70;;;;;;486955;241;1325;-44
2021/04/28 05:13:20;;;;;;;;;;;18.00;41.80;;;;;;487014;244;2147;-44
2021/04/28 05:15:21;;;;;;;;;;;18.00;41.70;;;;;;487164;243;1056;-45
2021/04/28 05:17:23;;;;;;;;;;;18.00;41.70;;;;;;486980;244;1352;-44
2021/04/28 05:19:24;;;;;;;;;;;18.00;41.70;;;;;;487006;244;1198;-44
2021/04/28 05:21:25;;;;;;;;;;;18.00;41.70;;;;;;486947;243;1091;-44
2021/04/28 05:23:27;;;;;;;;;;;18.00;41.70;;;;;;487068;244;1211;-44
2021/04/28 05:25:28;;;;;;;;;;;18.00;41.60;;;;;;487049;244;1153;-44
2021/04/28 05:27:29;;;;;;;;;;;18.00;41.50;;;;;;487139;244;1036;-44
2021/04/28 05:29:31;;;;;;;;;;;18.00;41.60;;;;;;487075;244;1200;-44
2021/04/28 05:31:32;;;;;;;;;;;18.00;41.60;;;;;;487233;243;1256;-44
2021/04/28 05:33:33;;;;;;;;;;;18.00;41.60;;;;;;487332;243;2201;-44
2021/04/28 05:35:35;;;;;;;;;;;18.00;41.50;;;;;;486979;243;1123;-44
2021/04/28 05:37:36;;;;;;;;;;;18.00;41.50;;;;;;487026;244;1128;-44
2021/04/28 05:39:37;;;;;;;;;;;18.00;41.50;;;;;;486961;243;1238;-44
2021/04/28 05:41:39;;;;;;;;;;;18.10;41.50;;;;;;487001;243;1089;-44
2021/04/28 05:43:40;;;;;;;;;;;18.10;41.40;;;;;;486912;244;1205;-44
2021/04/28 05:45:44;;;;;;;;;;;18.00;41.40;;;;;;487086;244;1108;-44
2021/04/28 05:47:46;;;;;;;;;;;18.10;41.30;;;;;;487013;244;1059;-44
2021/04/28 05:49:47;;;;;;;;;;;18.10;41.20;;;;;;487037;243;1185;-44
2021/04/28 05:51:48;;;;;;;;;;;18.10;41.10;;;;;;487118;244;1091;-44
2021/04/28 05:53:50;;;;;;;;;;;18.20;41.10;;;;;;486965;243;2185;-44
2021/04/28 05:55:51;;;;;;;;;;;18.20;41.10;;;;;;487002;244;1067;-44
2021/04/28 05:57:52;;;;;;;;;;;18.20;41.00;;;;;;486962;243;1057;-44
2021/04/28 05:59:53;;;;;;;;;;;18.20;40.90;;;;;;486978;244;1157;-44
2021/04/28 06:01:55;;;;;;;;;;;18.30;41.00;;;;;;486862;243;1133;-44
2021/04/28 06:03:56;;;;;;;;;;;18.30;40.90;;;;;;486907;244;1236;-44
2021/04/28 06:05:57;;;;;;;;;;;18.30;40.90;;;;;;486750;244;1504;-44
2021/04/28 06:07:58;;;;;;;;;;;18.20;40.90;;;;;;486727;244;1149;-44
2021/04/28 06:10:00;;;;;;;;;;;18.10;41.00;;;;;;486747;243;1107;-44
2021/04/28 06:12:01;;;;;;;;;;;18.10;41.10;;;;;;486681;244;1168;-44
2021/04/28 06:14:02;;;;;;;;;;;18.00;41.30;;;;;;486846;243;2187;-44
2021/04/28 06:16:04;;;;;;;;;;;18.00;41.50;;;;;;486856;243;1217;-44
2021/04/28 06:18:06;;;;;;;;;;;17.90;41.70;;;;;;486989;244;1057;-44
2021/04/28 06:20:07;;;;;;;;;;;17.90;41.80;;;;;;486830;244;1179;-44
2021/04/28 06:22:08;;;;;;;;;;;18.00;41.50;;;;;;486983;243;1234;-44
2021/04/28 06:24:09;;;;;;;;;;;18.30;41.00;;;;;;486674;242;1213;-44
2021/04/28 06:26:11;;;;;;;;;;;18.60;40.20;;;;;;486696;244;1353;-44
2021/04/28 06:28:12;;;;;;;;;;;18.90;39.60;;;;;;486733;244;1174;-44
2021/04/28 06:30:14;;;;;;;;;;;19.10;39.10;;;;;;486590;244;1217;-44
2021/04/28 06:32:15;;;;;;;;;;;19.20;38.80;;;;;;486424;244;1338;-45
2021/04/28 06:34:16;;;;;;;;;;;19.30;38.50;;;;;;487019;243;2194;-44
2021/04/28 06:36:17;;;;;;;;;;;19.50;38.40;;;;;;486797;243;1071;-44
2021/04/28 06:38:19;;;;;;;;;;;19.50;38.20;;;;;;486774;243;1275;-44
2021/04/28 06:40:22;;;;;;;;;;;19.50;38.10;;;;;;486586;244;1090;-44
2021/04/28 06:42:22;;;;;;;;;;;19.60;38.00;;;;;;486479;244;1414;-44
2021/04/28 06:44:23;;;;;;;;;;;19.70;37.90;;;;;;486798;244;1169;-44
2021/04/28 06:46:24;;;;;;;;;;;19.70;37.80;;;;;;486745;244;1126;-44
2021/04/28 06:48:26;;;;;;;;;;;19.80;37.80;;;;;;486784;244;1305;-44
2021/04/28 06:50:27;;;;;;;;;;;19.80;37.80;;;;;;486879;244;1199;-45
2021/04/28 06:52:28;;;;;;;;;;;19.80;37.70;;;;;;486755;244;1218;-45
2021/04/28 06:54:29;;;;;;;;;;;19.80;37.60;;;;;;486622;243;2185;-45
2021/04/28 06:56:31;;;;;;;;;;;19.90;37.60;;;;;;486555;244;1157;-44
2021/04/28 06:58:32;;;;;;;;;;;19.90;37.50;;;;;;486659;243;1118;-44
2021/04/28 07:00:33;;;;;;;;;;;20.00;37.40;;;;;;486432;244;1292;-44
2021/04/28 07:02:35;;;;;;;;;;;20.00;37.40;;;;;;486460;244;1214;-45
2021/04/28 07:04:36;;;;;;;;;;;20.00;37.30;;;;;;486559;244;1106;-44
2021/04/28 07:06:37;;;;;;;;;;;20.10;37.30;;;;;;486524;244;1153;-44
2021/04/28 07:08:38;;;;;;;;;;;20.10;37.20;;;;;;486699;244;1203;-44
2021/04/28 07:10:40;;;;;;;;;;;20.10;37.20;;;;;;486527;244;1131;-44
2021/04/28 07:12:41;;;;;;;;;;;20.20;37.20;;;;;;486527;244;1104;-44
2021/04/28 07:14:42;;;;;;;;;;;20.20;37.10;;;;;;486365;243;2201;-44
2021/04/28 07:16:43;;;;;;;;;;;20.20;37.00;;;;;;486307;244;1099;-45
2021/04/28 07:18:45;;;;;;;;;;;20.20;37.00;;;;;;486444;244;1243;-44
2021/04/28 07:20:46;;;;;;;;;;;20.30;37.00;;;;;;486441;244;1219;-45
2021/04/28 07:22:48;;;;;;;;;;;20.30;37.00;;;;;;486509;244;1216;-44
2021/04/28 07:24:49;;;;;;;;;;;20.30;36.90;;;;;;486690;244;1204;-45
2021/04/28 07:26:50;;;;;;;;;;;20.30;36.90;;;;;;486501;244;1075;-45
2021/04/28 07:28:52;;;;;;;;;;;20.30;36.90;;;;;;486613;244;1094;-44
2021/04/28 07:30:53;;;;;;;;;;;20.30;36.90;;;;;;486526;244;1345;-45
2021/04/28 07:32:54;;;;;;;;;;;20.40;36.90;;;;;;486558;244;1126;-45
2021/04/28 07:34:55;;;;;;;;;;;20.40;36.90;;;;;;486668;243;2193;-45
2021/04/28 07:36:57;;;;;;;;;;;20.40;36.80;;;;;;486471;244;1223;-45
2021/04/28 07:38:58;;;;;;;;;;;20.40;36.90;;;;;;486644;244;1147;-44
2021/04/28 07:40:59;;;;;;;;;;;20.40;36.80;;;;;;486688;243;1089;-45
2021/04/28 07:43:00;;;;;;;;;;;20.50;36.80;;;;;;486691;244;1139;-44
2021/04/28 07:45:02;;;;;;;;;;;20.50;36.80;;;;;;486487;244;1329;-45
2021/04/28 07:47:03;;;;;;;;;;;20.50;36.80;;;;;;486476;244;1251;-44
2021/04/28 07:49:04;;;;;;;;;;;20.50;36.70;;;;;;486664;244;1173;-44
2021/04/28 07:51:06;;;;;;;;;;;20.50;36.70;;;;;;486533;244;1296;-45
2021/04/28 07:53:07;;;;;;;;;;;20.50;36.70;;;;;;486630;244;1081;-45
2021/04/28 07:55:08;;;;;;;;;;;20.50;36.60;;;;;;486485;244;2193;-44
2021/04/28 07:57:09;;;;;;;;;;;20.50;36.60;;;;;;486469;244;1142;-45
2021/04/28 07:59:13;;;;;;;;;;;20.60;36.70;;;;;;486318;243;1246;-44
2021/04/28 08:01:12;;;;;;;;;;;20.60;36.60;;;;;;486287;244;1308;-44
2021/04/28 08:03:13;;;;;;;;;;;20.60;36.60;;;;;;486510;244;1163;-45
2021/04/28 08:05:15;;;;;;;;;;;20.60;36.60;;;;;;486579;244;1200;-44
2021/04/28 08:07:16;;;;;;;;;;;20.60;36.50;;;;;;486431;244;1080;-45
2021/04/28 08:09:18;;;;;;;;;;;20.70;36.50;;;;;;486672;244;1259;-45
2021/04/28 08:11:19;;;;;;;;;;;20.70;36.50;;;;;;486511;243;1098;-45
2021/04/28 08:13:20;;;;;;;;;;;20.70;36.50;;;;;;486532;243;1112;-44
2021/04/28 08:15:21;;;;;;;;;;;20.70;36.40;;;;;;486553;244;2122;-45
2021/04/28 08:17:23;;;;;;;;;;;20.70;36.50;;;;;;486494;244;1339;-45
2021/04/28 08:19:24;;;;;;;;;;;20.70;36.40;;;;;;486275;244;1368;-45
2021/04/28 08:21:25;;;;;;;;;;;20.70;36.40;;;;;;486383;244;1190;-44
2021/04/28 08:23:29;;;;;;;;;;;20.80;36.40;;;;;;486352;244;1371;-44
2021/04/28 08:25:29;;;;;;;;;;;20.80;36.40;;;;;;486352;242;2336;-45
2021/04/28 08:27:30;;;;;;;;;;;20.80;36.30;;;;;;486555;244;1114;-45
2021/04/28 08:29:31;;;;;;;;;;;20.80;36.40;;;;;;486377;243;1073;-44
2021/04/28 08:31:32;;;;;;;;;;;20.80;36.40;;;;;;486334;243;1362;-45
2021/04/28 08:33:34;;;;;;;;;;;20.80;36.40;;;;;;486603;243;1191;-44
2021/04/28 08:35:35;;;;;;;;;;;20.80;36.40;;;;;;486754;244;2107;-45
2021/04/28 08:37:36;;;;;;;;;;;20.90;36.40;;;;;;486534;244;1193;-45
2021/04/28 08:39:38;;;;;;;;;;;20.90;36.40;;;;;;486544;243;1090;-44
2021/04/28 08:41:39;;;;;;;;;;;20.90;36.20;;;;;;486547;244;1096;-45
2021/04/28 08:43:40;;;;;;;;;;;20.90;36.30;;;;;;486571;244;1067;-44
2021/04/28 08:45:41;;;;;;;;;;;21.00;36.20;;;;;;486780;244;1233;-45
2021/04/28 08:47:43;;;;;;;;;;;21.00;36.30;;;;;;486644;244;1110;-45
2021/04/28 08:49:44;;;;;;;;;;;21.00;36.30;;;;;;486444;244;1134;-45
2021/04/28 08:51:46;;;;;;;;;;;21.00;36.20;;;;;;486463;243;1126;-45
2021/04/28 08:53:47;;;;;;;;;;;21.10;36.20;;;;;;486633;244;2157;-45
2021/04/28 08:55:48;;;;;;;;;;;21.10;36.20;;;;;;486522;244;1127;-45
2021/04/28 08:57:49;;;;;;;;;;;21.10;36.30;;;;;;486573;244;1343;-45
2021/04/28 08:59:53;;;;;;;;;;;21.10;36.20;;;;;;486424;243;1162;-44
2021/04/28 09:01:52;;;;;;;;;;;21.10;36.20;;;;;;486873;243;1789;-44
2021/04/28 09:03:54;;;;;;;;;;;21.10;36.20;;;;;;487003;244;1098;-45
2021/04/28 09:05:55;;;;;;;;;;;21.10;36.20;;;;;;486530;244;1112;-45
2021/04/28 09:07:57;;;;;;;;;;;21.10;36.20;;;;;;486602;244;1175;-45
2021/04/28 09:09:58;;;;;;;;;;;21.20;36.20;;;;;;486595;244;1088;-44
2021/04/28 09:11:59;;;;;;;;;;;21.20;36.20;;;;;;486561;243;1106;-45
2021/04/28 09:14:00;;;;;;;;;;;21.20;36.10;;;;;;486561;244;2132;-44
2021/04/28 09:16:02;;;;;;;;;;;21.20;36.10;;;;;;486618;244;1342;-45
2021/04/28 09:18:03;;;;;;;;;;;21.30;36.10;;;;;;486641;244;1205;-45
2021/04/28 09:20:04;;;;;;;;;;;21.20;36.10;;;;;;486463;244;1159;-45
2021/04/28 09:22:05;;;;;;;;;;;21.20;36.10;;;;;;486561;244;1097;-45
2021/04/28 09:24:07;;;;;;;;;;;21.30;36.10;;;;;;486594;244;1104;-44
2021/04/28 09:26:08;;;;;;;;;;;21.30;36.10;;;;;;486581;243;1155;-45
2021/04/28 09:28:09;;;;;;;;;;;21.30;36.10;;;;;;486520;244;1576;-45
2021/04/28 09:30:11;;;;;;;;;;;21.30;36.10;;;;;;486315;244;1076;-45
2021/04/28 09:32:12;;;;;;;;;;;21.30;36.00;;;;;;486419;244;1211;-45
2021/04/28 09:34:13;;;;;;;;;;;21.30;36.00;;;;;;486558;244;2182;-45
2021/04/28 09:36:14;;;;;;;;;;;21.30;36.00;;;;;;486534;244;1081;-45
2021/04/28 09:38:16;;;;;;;;;;;21.30;36.00;;;;;;486564;244;1112;-44
2021/04/28 09:40:17;;;;;;;;;;;21.40;36.10;;;;;;486597;244;1102;-45
2021/04/28 09:42:18;;;;;;;;;;;21.40;36.10;;;;;;486568;243;1226;-45
2021/04/28 09:44:20;;;;;;;;;;;21.40;36.00;;;;;;486536;244;1250;-45
2021/04/28 09:46:21;;;;;;;;;;;21.40;36.00;;;;;;486342;242;1412;-45
2021/04/28 09:48:22;;;;;;;;;;;21.40;36.00;;;;;;486478;244;1262;-45
2021/04/28 09:50:24;;;;;;;;;;;21.40;36.00;;;;;;486365;244;1099;-45
2021/04/28 09:52:25;;;;;;;;;;;21.40;36.00;;;;;;486367;243;1145;-45
2021/04/28 09:54:26;;;;;;;;;;;21.40;35.90;;;;;;486576;244;2202;-44
2021/04/28 09:56:28;;;;;;;;;;;21.10;36.40;;;;;;486695;244;1258;-45
2021/04/28 09:58:29;;;;;;;;;;;20.60;37.30;;;;;;486528;244;1331;-44
2021/04/28 10:00:30;;;;;;;;;;;20.20;38.00;;;;;;486443;244;1546;-44
2021/04/28 10:02:31;;;;;;;;;;;20.00;38.70;;;;;;486320;244;1204;-44
2021/04/28 10:04:33;;;;;;;;;;;19.80;39.10;;;;;;486593;244;1100;-44
2021/04/28 10:06:34;;;;;;;;;;;19.70;39.40;;;;;;486580;244;1160;-44
2021/04/28 10:08:35;;;;;;;;;;;19.50;39.60;;;;;;486679;243;1139;-45
2021/04/28 10:10:37;;;;;;;;;;;19.50;39.70;;;;;;486541;244;1142;-44
2021/04/28 10:12:38;;;;;;;;;;;19.40;39.80;;;;;;486480;244;1104;-44
2021/04/28 10:14:39;;;;;;;;;;;19.30;40.00;;;;;;486532;244;2127;-44
2021/04/28 10:16:40;;;;;;;;;;;19.30;40.20;;;;;;486334;244;1149;-44
2021/04/28 10:18:42;;;;;;;;;;;19.20;40.40;;;;;;486535;244;1336;-44
2021/04/28 10:20:43;;;;;;;;;;;19.10;40.40;;;;;;486624;244;1114;-44
2021/04/28 10:22:44;;;;;;;;;;;19.10;40.50;;;;;;486520;244;1070;-44
2021/04/28 10:24:46;;;;;;;;;;;19.10;40.60;;;;;;486599;244;1087;-44
2021/04/28 10:26:47;;;;;;;;;;;19.10;40.60;;;;;;486445;243;1198;-44
2021/04/28 10:28:48;;;;;;;;;;;19.00;40.60;;;;;;486380;244;1121;-44
2021/04/28 10:30:49;;;;;;;;;;;19.00;40.70;;;;;;486315;243;1123;-44
2021/04/28 10:32:51;;;;;;;;;;;19.00;40.70;;;;;;486506;244;1371;-44
2021/04/28 10:34:52;;;;;;;;;;;19.00;40.70;;;;;;486572;244;2174;-44
2021/04/28 10:36:54;;;;;;;;;;;19.00;40.70;;;;;;486127;244;1200;-44
2021/04/28 10:38:55;;;;;;;;;;;19.00;40.80;;;;;;486108;244;1141;-44
2021/04/28 10:40:56;;;;;;;;;;;18.90;40.90;;;;;;486259;244;1240;-44
2021/04/28 10:42:57;;;;;;;;;;;18.90;40.90;;;;;;486350;244;1108;-44
2021/04/28 10:44:59;;;;;;;;;;;18.90;40.80;;;;;;486245;244;1238;-44
2021/04/28 10:47:00;;;;;;;;;;;18.90;40.80;;;;;;486461;244;1174;-44
2021/04/28 10:49:01;;;;;;;;;;;18.90;40.90;;;;;;486695;244;1117;-44
2021/04/28 10:51:02;;;;;;;;;;;18.80;40.90;;;;;;486417;243;1116;-44
2021/04/28 10:53:06;;;;;;;;;;;18.90;41.00;;;;;;486473;244;1477;-44
2021/04/28 10:55:05;;;;;;;;;;;18.80;40.90;;;;;;486301;244;2350;-44
2021/04/28 10:57:06;;;;;;;;;;;18.90;40.90;;;;;;486476;244;1137;-44
2021/04/28 10:59:08;;;;;;;;;;;18.80;40.90;;;;;;486510;242;1166;-44
2021/04/28 11:01:09;;;;;;;;;;;18.80;40.90;;;;;;486279;244;1717;-44
2021/04/28 11:03:10;;;;;;;;;;;18.80;40.90;;;;;;486427;244;1116;-44
2021/04/28 11:05:11;;;;;;;;;;;18.80;41.00;;;;;;486578;244;1140;-44
2021/04/28 11:07:14;;;;;;;;;;;18.80;41.00;;;;;;486625;244;1102;-44
2021/04/28 11:09:14;;;;;;;;;;;18.80;40.90;;;;;;486478;244;2169;-44
2021/04/28 11:11:15;;;;;;;;;;;18.80;40.80;;;;;;486321;244;1274;-45
2021/04/28 11:13:17;;;;;;;;;;;18.80;40.90;;;;;;486642;244;1075;-44
2021/04/28 11:15:18;;;;;;;;;;;18.80;41.00;;;;;;486448;244;2150;-44
2021/04/28 11:17:19;;;;;;;;;;;18.80;41.00;;;;;;486676;244;1220;-44
2021/04/28 11:19:21;;;;;;;;;;;18.80;41.00;;;;;;486393;244;1174;-44
2021/04/28 11:21:23;;;;;;;;;;;18.80;41.00;;;;;;486496;244;1232;-44
2021/04/28 11:23:23;;;;;;;;;;;18.70;40.90;;;;;;486407;244;2288;-44
2021/04/28 11:25:24;;;;;;;;;;;18.70;41.00;;;;;;486332;244;1158;-44
2021/04/28 11:27:26;;;;;;;;;;;18.70;41.00;;;;;;486199;244;1151;-44
2021/04/28 11:29:27;;;;;;;;;;;18.70;41.00;;;;;;486471;244;1542;-44
2021/04/28 11:31:28;;;;;;;;;;;18.70;41.00;;;;;;486595;243;1103;-44
2021/04/28 11:33:30;;;;;;;;;;;18.70;41.10;;;;;;486600;244;1163;-44
2021/04/28 11:35:31;;;;;;;;;;;18.70;41.10;;;;;;486397;244;2186;-44
2021/04/28 11:37:33;;;;;;;;;;;18.70;41.10;;;;;;486438;244;1176;-44
2021/04/28 11:39:34;;;;;;;;;;;18.60;41.10;;;;;;486641;244;1106;-44
2021/04/28 11:41:35;;;;;;;;;;;18.60;41.10;;;;;;486552;243;1115;-44
2021/04/28 11:43:36;;;;;;;;;;;18.60;41.10;;;;;;486423;244;1208;-44
2021/04/28 11:45:38;;;;;;;;;;;18.60;41.10;;;;;;486279;244;1150;-44
2021/04/28 11:47:39;;;;;;;;;;;18.60;41.10;;;;;;486345;243;1153;-45
2021/04/28 11:49:40;;;;;;;;;;;18.60;41.10;;;;;;486476;244;1173;-44
2021/04/28 11:51:42;;;;;;;;;;;18.60;41.20;;;;;;486617;244;1080;-44
2021/04/28 11:53:43;;;;;;;;;;;18.60;41.20;;;;;;486463;243;1208;-44
2021/04/28 11:55:45;;;;;;;;;;;18.60;41.10;;;;;;486570;244;2147;-44